createdAt,value
2023-03-29T00:01:43.141Z,-0.31
2023-03-29T00:04:13.664Z,-0.34
2023-03-29T00:06:42.454Z,-0.36
2023-03-29T00:09:11.735Z,-0.25
2023-03-29T00:11:40.404Z,-0.39
2023-03-29T00:14:09.551Z,-0.69
2023-03-29T00:16:39.710Z,-0.74
2023-03-29T00:19:08.420Z,-0.73
2023-03-29T00:21:39.213Z,-0.77
2023-03-29T00:24:10.109Z,-0.56
2023-03-29T00:26:39.206Z,-0.84
2023-03-29T00:29:10.216Z,-1.04
2023-03-29T00:31:40.364Z,-1.22
2023-03-29T00:34:09.120Z,-1.03
2023-03-29T00:36:38.352Z,-1.03
2023-03-29T00:39:09.711Z,-1.03
2023-03-29T00:41:38.576Z,-1.14
2023-03-29T00:44:07.150Z,-1.28
2023-03-29T00:46:36.121Z,-1.48
2023-03-29T00:49:14.253Z,-1.45
2023-03-29T00:51:43.639Z,-1.48
2023-03-29T00:54:15.865Z,-1.42
2023-03-29T00:56:48.500Z,-1.22
2023-03-29T00:59:21.810Z,-1.04
2023-03-29T01:01:55.408Z,-1.13
2023-03-29T01:04:31.419Z,-1.25
2023-03-29T01:07:04.832Z,-1.20
2023-03-29T01:09:36.326Z,-1.30
2023-03-29T01:12:13.486Z,-1.27
2023-03-29T01:14:49.170Z,-1.49
2023-03-29T01:17:21.974Z,-1.24
2023-03-29T01:20:02.230Z,-1.21
2023-03-29T01:22:38.990Z,-1.35
2023-03-29T01:25:13.760Z,-1.22
2023-03-29T01:27:54.657Z,-1.32
2023-03-29T01:30:29.816Z,-1.28
2023-03-29T01:33:01.545Z,-1.45
2023-03-29T01:35:39.935Z,-1.35
2023-03-29T01:38:14.888Z,-1.20
2023-03-29T01:40:43.883Z,-1.51
2023-03-29T01:43:24.808Z,-1.75
2023-03-29T01:46:02.502Z,-1.89
2023-03-29T01:48:34.576Z,-1.99
2023-03-29T01:51:09.124Z,-2.09
2023-03-29T01:53:43.893Z,-2.17
2023-03-29T01:56:15.697Z,-2.30
2023-03-29T01:58:47.679Z,-2.30
2023-03-29T02:01:24.086Z,-2.47
2023-03-29T02:03:54.928Z,-2.58
2023-03-29T02:06:29.513Z,-2.52
2023-03-29T02:09:01.161Z,-2.42
2023-03-29T02:11:31.063Z,-2.36
2023-03-29T02:14:01.385Z,-2.38
2023-03-29T02:16:32.767Z,-2.52
2023-03-29T02:19:01.638Z,-2.57
2023-03-29T02:21:35.340Z,-2.66
2023-03-29T02:24:13.357Z,-2.64
2023-03-29T02:26:42.158Z,-2.51
2023-03-29T02:29:12.528Z,-2.26
2023-03-29T02:31:47.299Z,-2.48
2023-03-29T02:34:22.523Z,-2.69
2023-03-29T02:36:53.879Z,-2.36
2023-03-29T02:39:25.423Z,-2.23
2023-03-29T02:41:58.649Z,-2.15
2023-03-29T02:44:31.082Z,-2.10
2023-03-29T02:47:04.445Z,-2.06
2023-03-29T02:49:33.975Z,-2.06
2023-03-29T02:52:08.571Z,-2.26
2023-03-29T02:54:43.658Z,-2.55
2023-03-29T02:57:13.885Z,-2.75
2023-03-29T02:59:45.197Z,-2.96
2023-03-29T03:02:15.604Z,-3.00
2023-03-29T03:04:45.005Z,-2.99
2023-03-29T03:07:13.743Z,-2.92
2023-03-29T03:09:42.820Z,-2.96
2023-03-29T03:12:12.618Z,-2.85
2023-03-29T03:14:42.176Z,-2.92
2023-03-29T03:17:12.202Z,-3.10
2023-03-29T03:19:40.632Z,-3.07
2023-03-29T03:22:11.146Z,-3.07
2023-03-29T03:24:40.838Z,-3.14
2023-03-29T03:27:09.672Z,-3.14
2023-03-29T03:29:42.095Z,-3.24
2023-03-29T03:32:12.495Z,-3.28
2023-03-29T03:34:41.830Z,-3.24
2023-03-29T03:37:12.030Z,-3.27
2023-03-29T03:39:40.794Z,-3.23
2023-03-29T03:42:09.565Z,-3.21
2023-03-29T03:44:38.050Z,-3.27
2023-03-29T03:47:06.842Z,-3.44
2023-03-29T03:49:37.558Z,-3.48
2023-03-29T03:52:06.600Z,-3.44
2023-03-29T03:54:35.974Z,-3.48
2023-03-29T03:57:06.571Z,-3.62
2023-03-29T03:59:35.137Z,-3.68
2023-03-29T04:02:05.565Z,-3.68
2023-03-29T04:04:34.652Z,-3.68
2023-03-29T04:07:08.425Z,-3.75
2023-03-29T04:09:37.678Z,-3.76
2023-03-29T04:12:06.559Z,-3.82
2023-03-29T04:14:36.054Z,-3.89
2023-03-29T04:17:04.981Z,-3.82
2023-03-29T04:19:33.480Z,-3.74
2023-03-29T04:22:03.188Z,-3.89
2023-03-29T04:24:33.011Z,-4.03
2023-03-29T04:27:01.367Z,-3.97
2023-03-29T04:29:29.950Z,-3.97
2023-03-29T04:31:58.702Z,-4.03
2023-03-29T04:34:30.087Z,-3.89
2023-03-29T04:36:59.197Z,-3.87
2023-03-29T04:39:33.977Z,-3.92
2023-03-29T04:42:04.513Z,-3.97
2023-03-29T04:44:33.878Z,-3.92
2023-03-29T04:47:02.626Z,-3.93
2023-03-29T04:49:31.262Z,-3.90
2023-03-29T04:52:00.878Z,-3.86
2023-03-29T04:54:29.594Z,-3.83
2023-03-29T04:56:58.760Z,-3.72
2023-03-29T04:59:28.450Z,-3.66
2023-03-29T05:01:56.722Z,-3.47
2023-03-29T05:04:25.686Z,-3.35
2023-03-29T05:06:56.158Z,-3.31
2023-03-29T05:09:28.689Z,-3.26
2023-03-29T05:11:57.014Z,-3.20
2023-03-29T05:14:33.093Z,-3.01
2023-03-29T05:17:06.550Z,-2.75
2023-03-29T05:19:36.673Z,-2.55
2023-03-29T05:22:09.032Z,-2.34
2023-03-29T05:24:37.922Z,-2.23
2023-03-29T05:27:06.460Z,-2.03
2023-03-29T05:29:36.902Z,-1.73
2023-03-29T05:32:05.840Z,-1.68
2023-03-29T05:34:39.794Z,-1.63
2023-03-29T05:37:13.169Z,-1.54
2023-03-29T05:39:49.032Z,-1.40
2023-03-29T05:42:19.474Z,-1.24
2023-03-29T05:44:54.449Z,-1.05
2023-03-29T05:47:23.914Z,-0.90
2023-03-29T05:49:55.514Z,-0.86
2023-03-29T05:52:24.951Z,-0.66
2023-03-29T05:54:58.352Z,-0.61
2023-03-29T05:57:28.752Z,-0.41
2023-03-29T05:59:58.905Z,-0.19
2023-03-29T06:02:29.864Z,-0.10
2023-03-29T06:05:03.522Z,0.02
2023-03-29T06:07:33.628Z,0.18
2023-03-29T06:10:05.105Z,0.43
2023-03-29T06:12:34.268Z,0.48
2023-03-29T06:15:09.174Z,0.71
2023-03-29T06:17:39.307Z,0.86
2023-03-29T06:20:13.569Z,1.03
2023-03-29T06:22:46.779Z,1.17
2023-03-29T06:25:17.698Z,1.36
2023-03-29T06:27:47.900Z,1.41
2023-03-29T06:30:19.074Z,1.60
2023-03-29T06:32:49.490Z,1.62
2023-03-29T06:35:19.628Z,1.86
2023-03-29T06:37:50.574Z,1.89
2023-03-29T06:40:24.732Z,1.74
2023-03-29T06:42:57.960Z,1.83
2023-03-29T06:45:33.546Z,2.02
2023-03-29T06:48:06.011Z,1.92
2023-03-29T06:50:46.201Z,1.98
2023-03-29T06:53:15.741Z,2.03
2023-03-29T06:55:46.406Z,2.09
2023-03-29T06:58:15.484Z,2.13
2023-03-29T07:00:51.841Z,2.20
2023-03-29T07:03:23.530Z,2.39
2023-03-29T07:06:04.591Z,2.54
2023-03-29T07:08:35.261Z,2.36
2023-03-29T07:11:10.719Z,2.43
2023-03-29T07:13:40.038Z,2.61
2023-03-29T07:16:14.995Z,2.50
2023-03-29T07:18:46.505Z,2.78
2023-03-29T07:21:18.986Z,3.12
2023-03-29T07:23:49.918Z,2.85
2023-03-29T07:26:28.983Z,2.94
2023-03-29T07:29:01.560Z,3.37
2023-03-29T07:31:35.142Z,3.22
2023-03-29T07:34:07.266Z,3.42
2023-03-29T07:36:40.220Z,3.43
2023-03-29T07:39:15.480Z,3.63
2023-03-29T07:41:48.769Z,3.88
2023-03-29T07:44:18.367Z,3.98
2023-03-29T07:46:50.065Z,4.14
2023-03-29T07:49:19.806Z,3.95
2023-03-29T07:51:54.350Z,4.06
2023-03-29T07:54:27.105Z,3.85
2023-03-29T07:57:02.538Z,3.69
2023-03-29T07:59:32.896Z,3.88
2023-03-29T08:02:09.091Z,4.01
2023-03-29T08:04:37.503Z,3.88
2023-03-29T08:07:08.022Z,4.11
2023-03-29T08:09:38.467Z,4.36
2023-03-29T08:12:07.647Z,4.54
2023-03-29T08:14:38.631Z,4.73
2023-03-29T08:17:12.789Z,4.88
2023-03-29T08:19:41.667Z,4.90
2023-03-29T08:22:26.697Z,4.80
2023-03-29T08:24:56.810Z,5.08
2023-03-29T08:27:25.274Z,5.15
2023-03-29T08:29:53.540Z,4.46
2023-03-29T08:32:26.624Z,4.81
2023-03-29T08:35:03.930Z,4.60
2023-03-29T08:37:37.322Z,4.74
2023-03-29T08:40:07.831Z,4.66
2023-03-29T08:42:53.848Z,4.49
2023-03-29T08:45:30.176Z,4.97
2023-03-29T08:48:09.438Z,5.35
2023-03-29T08:50:42.348Z,5.22
2023-03-29T08:53:16.030Z,5.31
2023-03-29T08:55:47.482Z,5.49
2023-03-29T08:58:24.396Z,5.27
2023-03-29T09:01:01.986Z,5.83
2023-03-29T09:03:39.698Z,5.79
2023-03-29T09:06:12.836Z,5.90
2023-03-29T09:08:45.496Z,5.76
2023-03-29T09:11:27.763Z,5.89
2023-03-29T09:14:09.767Z,5.60
2023-03-29T09:16:51.074Z,5.80
2023-03-29T09:19:32.515Z,6.10
2023-03-29T09:22:08.549Z,6.44
2023-03-29T09:24:46.938Z,6.14
2023-03-29T09:27:23.386Z,5.58
2023-03-29T09:30:06.786Z,5.91
2023-03-29T09:32:45.060Z,6.22
2023-03-29T09:35:26.837Z,6.35
2023-03-29T09:37:56.828Z,6.29
2023-03-29T09:40:28.976Z,6.10
2023-03-29T09:43:01.208Z,6.34
2023-03-29T09:45:30.507Z,6.25
2023-03-29T09:48:06.576Z,6.49
2023-03-29T09:50:41.311Z,6.55
2023-03-29T09:53:10.231Z,6.83
2023-03-29T09:55:41.560Z,6.50
2023-03-29T09:58:19.386Z,6.76
2023-03-29T10:00:51.959Z,6.72
2023-03-29T10:03:24.390Z,7.10
2023-03-29T10:05:57.914Z,7.07
2023-03-29T10:08:30.329Z,6.86
2023-03-29T10:11:04.989Z,6.90
2023-03-29T10:13:36.887Z,6.49
2023-03-29T10:16:09.279Z,6.96
2023-03-29T10:18:41.886Z,7.07
2023-03-29T10:21:16.711Z,7.03
2023-03-29T10:23:48.075Z,7.28
2023-03-29T10:26:26.043Z,6.80
2023-03-29T10:28:57.459Z,6.87
2023-03-29T10:31:29.972Z,7.00
2023-03-29T10:34:02.968Z,7.51
2023-03-29T10:36:36.170Z,7.83
2023-03-29T10:39:06.564Z,7.35
2023-03-29T10:41:36.316Z,8.02
2023-03-29T10:44:06.885Z,7.68
2023-03-29T10:46:44.519Z,8.40
2023-03-29T10:49:20.530Z,7.28
2023-03-29T10:51:51.839Z,7.72
2023-03-29T10:54:24.191Z,8.11
2023-03-29T10:57:01.536Z,7.85
2023-03-29T10:59:33.958Z,8.79
2023-03-29T11:02:34.172Z,8.52
2023-03-29T11:05:16.643Z,8.51
2023-03-29T11:08:01.728Z,8.47
2023-03-29T11:10:42.758Z,9.59
2023-03-29T11:13:27.251Z,10.01
2023-03-29T11:16:05.066Z,9.74
2023-03-29T11:19:05.578Z,9.37
2023-03-29T11:21:42.822Z,9.78
2023-03-29T11:24:28.678Z,9.13
2023-03-29T11:27:11.205Z,8.41
2023-03-29T11:29:49.125Z,8.64
2023-03-29T11:32:24.937Z,9.31
2023-03-29T11:35:02.437Z,9.67
2023-03-29T11:37:39.376Z,9.92
2023-03-29T11:40:24.046Z,10.65
2023-03-29T11:42:58.145Z,10.10
2023-03-29T11:45:30.305Z,10.13
2023-03-29T11:48:04.479Z,9.51
2023-03-29T11:50:42.508Z,9.91
2023-03-29T11:53:22.436Z,10.46
2023-03-29T11:55:53.972Z,10.47
2023-03-29T11:58:27.676Z,10.52
2023-03-29T12:00:59.680Z,10.22
2023-03-29T12:03:39.651Z,10.16
2023-03-29T12:06:15.531Z,10.16
2023-03-29T12:08:50.587Z,10.87
2023-03-29T12:11:29.506Z,10.95
2023-03-29T12:14:05.644Z,10.52
2023-03-29T12:16:40.957Z,10.16
2023-03-29T12:19:18.627Z,10.20
2023-03-29T12:21:49.107Z,10.54
2023-03-29T12:24:20.837Z,11.40
2023-03-29T12:27:08.322Z,9.81
2023-03-29T12:29:49.824Z,9.79
2023-03-29T12:32:36.402Z,9.91
2023-03-29T12:35:24.720Z,10.30
2023-03-29T12:38:05.419Z,10.30
2023-03-29T12:40:43.147Z,10.17
2023-03-29T12:43:24.892Z,10.42
2023-03-29T12:45:59.754Z,10.01
2023-03-29T12:48:33.130Z,10.01
2023-03-29T12:51:10.062Z,10.47
2023-03-29T12:53:41.584Z,11.40
2023-03-29T12:56:16.361Z,10.30
2023-03-29T12:59:09.022Z,10.29
2023-03-29T13:01:39.541Z,10.12
2023-03-29T13:04:18.392Z,10.16
2023-03-29T13:07:10.728Z,10.37
2023-03-29T13:09:54.331Z,10.12
2023-03-29T13:12:28.563Z,10.60
2023-03-29T13:15:03.630Z,10.34
2023-03-29T13:17:42.884Z,10.29
2023-03-29T13:20:33.271Z,10.65
2023-03-29T13:23:19.859Z,10.49
2023-03-29T13:26:06.359Z,10.32
2023-03-29T13:28:45.840Z,10.49
2023-03-29T13:31:28.356Z,10.23
2023-03-29T13:34:08.336Z,10.65
2023-03-29T13:36:47.561Z,10.67
2023-03-29T13:39:20.680Z,10.36
2023-03-29T13:41:53.674Z,10.71
2023-03-29T13:44:29.878Z,10.84
2023-03-29T13:47:17.393Z,11.01
2023-03-29T13:49:55.657Z,9.70
2023-03-29T13:52:27.609Z,9.79
2023-03-29T13:55:03.744Z,10.32
2023-03-29T13:57:39.611Z,10.37
2023-03-29T14:00:18.524Z,10.42
2023-03-29T14:02:51.933Z,10.22
2023-03-29T14:05:24.920Z,10.33
2023-03-29T14:07:57.999Z,10.57
2023-03-29T14:10:32.910Z,9.67
2023-03-29T14:13:04.538Z,9.59
2023-03-29T14:15:47.852Z,10.43
2023-03-29T14:18:21.227Z,10.73
2023-03-29T14:20:53.823Z,10.47
2023-03-29T14:23:25.314Z,10.43
2023-03-29T14:25:54.005Z,10.34
2023-03-29T14:28:24.417Z,10.65
2023-03-29T14:30:53.711Z,10.63
2023-03-29T14:33:34.352Z,10.32
2023-03-29T14:36:04.992Z,10.30
2023-03-29T14:38:36.814Z,10.37
2023-03-29T14:41:07.072Z,10.02
2023-03-29T14:43:35.456Z,10.15
2023-03-29T14:46:07.561Z,10.20
2023-03-29T14:48:38.934Z,9.96
2023-03-29T14:51:08.270Z,10.01
2023-03-29T14:53:38.085Z,9.92
2023-03-29T14:56:08.973Z,9.88
2023-03-29T14:58:39.587Z,9.81
2023-03-29T15:01:16.370Z,9.70
2023-03-29T15:03:54.977Z,9.77
2023-03-29T15:06:25.400Z,9.78
2023-03-29T15:09:05.453Z,9.75
2023-03-29T15:11:40.182Z,9.62
2023-03-29T15:14:13.959Z,9.62
2023-03-29T15:16:48.935Z,9.52
2023-03-29T15:19:20.995Z,9.55
2023-03-29T15:21:54.106Z,9.46
2023-03-29T15:24:25.789Z,9.62
2023-03-29T15:27:03.513Z,9.68
2023-03-29T15:29:40.815Z,9.64
2023-03-29T15:32:10.359Z,9.54
2023-03-29T15:34:59.514Z,9.52
2023-03-29T15:37:28.587Z,9.47
2023-03-29T15:39:58.624Z,9.51
2023-03-29T15:42:27.786Z,9.48
2023-03-29T15:44:58.132Z,9.43
2023-03-29T15:47:26.587Z,9.38
2023-03-29T15:49:56.668Z,9.44
2023-03-29T15:52:25.127Z,9.37
2023-03-29T15:54:53.457Z,9.40
2023-03-29T15:57:22.958Z,9.20
2023-03-29T15:59:51.720Z,9.38
2023-03-29T16:02:24.515Z,9.41
2023-03-29T16:04:53.734Z,9.27
2023-03-29T16:07:24.107Z,9.20
2023-03-29T16:09:52.633Z,9.24
2023-03-29T16:12:21.218Z,9.20
2023-03-29T16:14:49.609Z,9.19
2023-03-29T16:17:18.948Z,9.09
2023-03-29T16:19:56.465Z,9.10
2023-03-29T16:22:27.146Z,9.06
2023-03-29T16:24:56.633Z,8.89
2023-03-29T16:27:28.148Z,8.95
2023-03-29T16:29:58.858Z,8.86
2023-03-29T16:32:28.751Z,8.79
2023-03-29T16:35:02.390Z,8.67
2023-03-29T16:37:33.471Z,8.58
2023-03-29T16:40:07.520Z,8.52
2023-03-29T16:42:36.174Z,8.48
2023-03-29T16:45:06.685Z,8.44
2023-03-29T16:47:37.226Z,8.31
2023-03-29T16:50:15.267Z,8.29
2023-03-29T16:52:49.153Z,8.20
2023-03-29T16:55:24.101Z,8.04
2023-03-29T16:57:53.617Z,7.93
2023-03-29T17:00:23.306Z,7.79
2023-03-29T17:02:53.694Z,7.82
2023-03-29T17:05:23.604Z,7.89
2023-03-29T17:07:56.642Z,7.90
2023-03-29T17:10:27.027Z,7.62
2023-03-29T17:13:08.060Z,7.41
2023-03-29T17:15:39.509Z,7.36
2023-03-29T17:18:08.166Z,7.30
2023-03-29T17:20:40.115Z,7.21
2023-03-29T17:23:10.654Z,7.15
2023-03-29T17:25:39.017Z,7.07
2023-03-29T17:28:08.750Z,7.03
2023-03-29T17:30:37.916Z,6.99
2023-03-29T17:33:08.760Z,7.03
2023-03-29T17:35:38.260Z,6.92
2023-03-29T17:38:08.153Z,6.87
2023-03-29T17:40:38.029Z,6.86
2023-03-29T17:43:06.280Z,6.83
2023-03-29T17:45:36.294Z,6.89
2023-03-29T17:48:06.597Z,6.83
2023-03-29T17:50:36.850Z,6.82
2023-03-29T17:53:07.148Z,6.86
2023-03-29T17:55:35.355Z,6.90
2023-03-29T17:58:05.799Z,6.94
2023-03-29T18:00:39.083Z,7.00
2023-03-29T18:03:09.132Z,7.00
2023-03-29T18:05:38.752Z,6.92
2023-03-29T18:08:08.680Z,6.90
2023-03-29T18:10:37.828Z,6.92
2023-03-29T18:13:11.449Z,6.93
2023-03-29T18:15:40.898Z,6.96
2023-03-29T18:18:11.345Z,6.89
2023-03-29T18:20:39.912Z,6.94
2023-03-29T18:23:09.061Z,6.89
2023-03-29T18:25:40.180Z,7.03
2023-03-29T18:28:59.429Z,7.06
2023-03-29T18:31:30.757Z,7.14
2023-03-29T18:34:49.059Z,7.17
2023-03-29T18:37:41.329Z,7.14
2023-03-29T18:40:10.591Z,7.14
2023-03-29T18:42:52.071Z,7.20
2023-03-29T18:45:24.003Z,7.21
2023-03-29T18:47:53.325Z,7.31
2023-03-29T18:50:21.630Z,7.32
2023-03-29T18:52:50.925Z,7.30
2023-03-29T18:55:20.517Z,7.27
2023-03-29T18:57:58.415Z,7.32
2023-03-29T19:00:32.995Z,7.25
2023-03-29T19:03:03.275Z,7.17
2023-03-29T19:05:32.820Z,7.18
2023-03-29T19:08:03.296Z,7.06
2023-03-29T19:10:32.915Z,7.10
2023-03-29T19:13:01.827Z,7.06
2023-03-29T19:15:34.924Z,7.00
2023-03-29T19:18:03.557Z,6.99
2023-03-29T19:20:33.199Z,7.01
2023-03-29T19:23:03.150Z,6.99
2023-03-29T19:25:33.828Z,6.92
2023-03-29T19:28:03.894Z,7.10
2023-03-29T19:30:38.276Z,7.00
2023-03-29T19:33:10.674Z,6.93
2023-03-29T19:35:38.995Z,6.96
2023-03-29T19:38:07.908Z,6.94
2023-03-29T19:40:36.849Z,6.97
2023-03-29T19:43:06.920Z,7.03
2023-03-29T19:45:41.658Z,7.04
2023-03-29T19:48:21.745Z,6.97
2023-03-29T19:50:56.040Z,7.06
2023-03-29T19:53:28.214Z,7.07
2023-03-29T19:55:57.569Z,7.04
2023-03-29T19:58:27.654Z,6.94
2023-03-29T20:01:00.304Z,7.03
2023-03-29T20:03:29.863Z,6.93
2023-03-29T20:06:00.003Z,7.00
2023-03-29T20:08:32.700Z,6.99
2023-03-29T20:11:08.122Z,7.03
2023-03-29T20:13:40.314Z,6.94
2023-03-29T20:16:11.601Z,6.87
2023-03-29T20:18:45.075Z,6.86
2023-03-29T20:21:16.836Z,6.90
2023-03-29T20:23:46.087Z,6.86
2023-03-29T20:26:16.959Z,6.87
2023-03-29T20:28:46.929Z,6.82
2023-03-29T20:31:17.916Z,6.75
2023-03-29T20:33:49.761Z,6.75
2023-03-29T20:36:23.041Z,6.66
2023-03-29T20:38:56.505Z,6.56
2023-03-29T20:41:26.867Z,6.53
2023-03-29T20:44:00.076Z,6.50
2023-03-29T20:46:35.147Z,6.42
2023-03-29T20:49:07.662Z,6.35
2023-03-29T20:51:39.648Z,6.35
2023-03-29T20:54:12.685Z,6.34
2023-03-29T20:56:44.437Z,6.32
2023-03-29T20:59:14.670Z,6.36
2023-03-29T21:01:47.124Z,6.45
2023-03-29T21:04:17.557Z,6.46
2023-03-29T21:06:49.661Z,6.45
2023-03-29T21:09:22.277Z,6.48
2023-03-29T21:11:52.563Z,6.41
2023-03-29T21:14:21.370Z,6.42
2023-03-29T21:16:54.086Z,6.44
2023-03-29T21:19:23.609Z,6.48
2023-03-29T21:21:52.347Z,6.50
2023-03-29T21:24:21.096Z,6.44
2023-03-29T21:26:49.434Z,6.41
2023-03-29T21:29:18.392Z,6.36
2023-03-29T21:31:55.556Z,6.42
2023-03-29T21:34:25.963Z,6.41
2023-03-29T21:36:57.221Z,6.35
2023-03-29T21:39:28.553Z,6.48
2023-03-29T21:42:00.051Z,6.44
2023-03-29T21:44:30.333Z,6.38
2023-03-29T21:47:03.483Z,6.41
2023-03-29T21:49:36.424Z,6.31
2023-03-29T21:52:07.082Z,6.29
2023-03-29T21:54:40.702Z,6.27
2023-03-29T21:57:09.208Z,6.35
2023-03-29T21:59:40.011Z,6.27
2023-03-29T22:02:10.706Z,6.27
2023-03-29T22:04:39.203Z,6.16
2023-03-29T22:07:08.596Z,6.10
2023-03-29T22:09:41.513Z,6.13
2023-03-29T22:12:14.343Z,6.06
2023-03-29T22:14:43.157Z,6.14
2023-03-29T22:17:16.099Z,6.11
2023-03-29T22:19:47.732Z,6.03
2023-03-29T22:22:17.996Z,6.06
2023-03-29T22:24:49.324Z,6.06
2023-03-29T22:27:17.630Z,6.11
2023-03-29T22:29:47.803Z,6.08
2023-03-29T22:32:17.922Z,6.04
2023-03-29T22:34:46.692Z,6.06
2023-03-29T22:37:26.891Z,6.08
2023-03-29T22:39:57.530Z,6.03
2023-03-29T22:42:31.241Z,5.98
2023-03-29T22:45:01.725Z,6.10
2023-03-29T22:47:33.404Z,6.06
2023-03-29T22:50:04.022Z,6.06
2023-03-29T22:52:34.345Z,6.00
2023-03-29T22:55:06.503Z,5.93
2023-03-29T22:57:40.309Z,5.87
2023-03-29T23:00:13.496Z,5.81
2023-03-29T23:02:43.704Z,5.74
2023-03-29T23:05:12.334Z,5.77
2023-03-29T23:07:44.525Z,5.69
2023-03-29T23:10:13.724Z,5.63
2023-03-29T23:12:42.888Z,5.50
2023-03-29T23:15:12.813Z,5.46
2023-03-29T23:17:42.437Z,5.42
2023-03-29T23:20:14.017Z,5.24
2023-03-29T23:22:43.092Z,5.27
2023-03-29T23:25:12.015Z,5.21
2023-03-29T23:27:41.485Z,5.14
2023-03-29T23:30:12.313Z,5.04
2023-03-29T23:32:41.329Z,4.97
2023-03-29T23:35:12.223Z,4.79
2023-03-29T23:37:44.133Z,4.73
2023-03-29T23:40:14.333Z,4.57
2023-03-29T23:42:48.401Z,4.59
2023-03-29T23:45:19.677Z,4.53
2023-03-29T23:47:49.232Z,4.57
2023-03-29T23:50:18.437Z,4.60
2023-03-29T23:52:49.621Z,4.64
2023-03-29T23:55:19.812Z,4.60
2023-03-29T23:57:48.573Z,4.60
